Terminal Aerodrome Forecast
Issued by NWS

Home | Current Version | Previous Version | Text Only | Print | Product List | Glossary On
Versions: 1 2 3 4 5 6 7 8 9 10 11 12 13 14 15 16
000
FTUS42 KTAE 242326
TAFABY
TAF
KABY 242326Z 2500/2524 19005KT P6SM SKC
     FM250700 19004KT 3SM BR BKN008
     FM251000 19004KT 2SM BR BKN004
     FM251400 20011KT P6SM BKN035=

USA.gov is the U.S. government's official web portal to all federal, state and local government web resources and services.